Time;durP1;ratioP1;P1;durP2;ratioP2;P2;SDS_P1;SDS_P2;PMS_P1;PMS_P2;Temp;Humidity;BMP_temperature;BMP_pressure;BME280_temperature;BME280_humidity;BME280_pressure;Samples;Min_cycle;Max_cycle;Signal;HPM_P1;HPM_P2
2023/04/21 00:02:24;;;;;;;;;;;;;;;;;;5066068;28;43107;-90
2023/04/21 00:04:50;;;;;;;;;;;;;;;;;;5064629;28;43859;-87
2023/04/21 00:07:18;;;;;;;;;;;;;;;;;;5064140;28;42971;-94
2023/04/21 00:09:44;;;;;;;;;;;;;;;;;;5064566;28;44534;-94
2023/04/21 00:12:10;;;;;;;;;;;;;;;;;;5064725;28;42867;-92
2023/04/21 00:14:36;;;;;;;;;;;;;;;;;;5067387;28;43538;-90
2023/04/21 00:17:02;;;;;;;;;;;;;;;;;;5063720;28;43276;-85
2023/04/21 00:19:29;;;;;;;;;;;;;;;;;;5064271;28;42935;-80
2023/04/21 00:21:57;;;;;;;;;;;;;;;;;;5065046;28;42910;-80
2023/04/21 00:24:24;;;;;;;;;;;;;;;;;;5065677;28;43465;-86
2023/04/21 00:26:49;;;;;;;;;;;19.30;50.60;;;;;;5065700;28;42743;-90
2023/04/21 00:29:15;;;;;;;;;;;19.30;50.60;;;;;;5067772;28;42825;-93
2023/04/21 00:31:40;;;;;;;;;;;19.40;50.70;;;;;;5066785;28;42883;-77
2023/04/21 00:34:06;;;;;;;;;;;;;;;;;;5075202;28;42885;-80
2023/04/21 00:36:32;;;;;;;;;;;;;;;;;;5088932;27;42886;-81
2023/04/21 00:38:58;;;;;;;;;;;;;;;;;;5085790;27;43014;-83
2023/04/21 00:41:24;;;;;;;;;;;19.20;50.50;;;;;;5083545;28;43049;-92
2023/04/21 00:44:05;;;;;;;;;;;19.30;50.70;;;;;;5084768;27;43494;-76
2023/04/21 00:46:31;;;;;;;;;;;19.30;50.70;;;;;;5072515;27;43000;-88
2023/04/21 00:48:57;;;;;;;;;;;19.30;50.60;;;;;;5062288;28;43057;-78
2023/04/21 00:51:23;;;;;;;;;;;19.30;50.50;;;;;;5065909;28;43017;-77
2023/04/21 00:53:49;;;;;;;;;;;19.30;50.50;;;;;;5066139;28;44162;-84
2023/04/21 00:56:15;;;;;;;;;;;19.30;50.50;;;;;;5066597;28;42884;-92
2023/04/21 00:58:41;;;;;;;;;;;19.30;50.50;;;;;;5067496;28;43777;-93
2023/04/21 01:01:07;;;;;;;;;;;19.40;50.50;;;;;;5067458;28;42823;-76
2023/04/21 01:03:33;;;;;;;;;;;19.30;50.50;;;;;;5065390;28;44393;-77
2023/04/21 01:05:58;;;;;;;;;;;19.30;50.30;;;;;;5066721;28;42948;-89
2023/04/21 01:08:24;;;;;;;;;;;;;;;;;;5067034;28;43000;-77
2023/04/21 01:10:50;;;;;;;;;;;;;;;;;;5067426;28;43046;-77
2023/04/21 01:13:16;;;;;;;;;;;;;;;;;;5067326;28;43083;-87
2023/04/21 01:15:42;;;;;;;;;;;;;;;;;;5067127;28;43196;-82
2023/04/21 01:18:08;;;;;;;;;;;;;;;;;;5067616;28;42980;-77
2023/04/21 01:20:34;;;;;;;;;;;19.50;50.50;;;;;;5066970;28;42914;-77
2023/04/21 01:23:01;;;;;;;;;;;;;;;;;;5066693;28;43579;-78
2023/04/21 01:25:27;;;;;;;;;;;19.30;50.30;;;;;;5065575;28;43010;-77
2023/04/21 01:27:53;;;;;;;;;;;;;;;;;;5067232;28;44432;-93
2023/04/21 01:30:18;;;;;;;;;;;19.20;50.40;;;;;;5068084;28;42865;-88
2023/04/21 01:32:44;;;;;;;;;;;;;;;;;;5068077;28;42874;-90
2023/04/21 01:35:10;;;;;;;;;;;19.10;50.40;;;;;;5067606;28;42982;-93
2023/04/21 01:37:36;;;;;;;;;;;;;;;;;;5071743;28;43454;-93
2023/04/21 01:40:03;;;;;;;;;;;;;;;;;;5081958;27;42790;-81
2023/04/21 01:42:29;;;;;;;;;;;;;;;;;;5066592;28;43502;-77
2023/04/21 01:44:55;;;;;;;;;;;19.30;50.40;;;;;;5066697;28;42917;-94
2023/04/21 01:47:21;;;;;;;;;;;19.30;50.40;;;;;;5062355;28;43080;-94
2023/04/21 01:49:47;;;;;;;;;;;19.10;50.20;;;;;;5045075;28;42859;-79
2023/04/21 01:52:13;;;;;;;;;;;;;;;;;;5047790;28;42956;-81
2023/04/21 01:54:39;;;;;;;;;;;;;;;;;;5065513;28;43324;-76
2023/04/21 01:57:05;;;;;;;;;;;;;;;;;;5064544;28;43158;-80
2023/04/21 01:59:31;;;;;;;;;;;;;;;;;;5066205;28;43101;-93
2023/04/21 02:01:57;;;;;;;;;;;;;;;;;;5062150;28;43151;-77
2023/04/21 02:04:23;;;;;;;;;;;;;;;;;;5065185;28;43363;-79
2023/04/21 02:06:49;;;;;;;;;;;;;;;;;;5065827;28;42957;-77
2023/04/21 02:09:14;;;;;;;;;;;19.10;50.40;;;;;;5065914;28;42910;-81
2023/04/21 02:11:40;;;;;;;;;;;;;;;;;;5065998;28;43579;-77
2023/04/21 02:14:07;;;;;;;;;;;;;;;;;;5066438;28;42939;-94
2023/04/21 02:16:32;;;;;;;;;;;19.30;50.30;;;;;;5065902;28;44462;-93
2023/04/21 02:19:01;;;;;;;;;;;;;;;;;;5064126;28;43038;-82
2023/04/21 02:21:27;;;;;;;;;;;;;;;;;;5054087;28;43507;-84
2023/04/21 02:23:53;;;;;;;;;;;19.20;50.60;;;;;;5065257;28;42909;-88
2023/04/21 02:26:19;;;;;;;;;;;19.20;50.60;;;;;;5066031;28;42962;-86
2023/04/21 02:28:45;;;;;;;;;;;;;;;;;;5065080;28;42981;-82
2023/04/21 02:31:10;;;;;;;;;;;19.20;50.60;;;;;;5065170;28;43742;-89
2023/04/21 02:33:36;;;;;;;;;;;;;;;;;;5065682;28;43573;-86
2023/04/21 02:36:02;;;;;;;;;;;;;;;;;;5065051;28;42992;-82
2023/04/21 02:38:29;;;;;;;;;;;;;;;;;;5065349;28;43062;-86
2023/04/21 02:40:55;;;;;;;;;;;19.10;50.50;;;;;;5065036;28;43273;-89
2023/04/21 02:43:20;;;;;;;;;;;19.20;50.60;;;;;;5065892;28;42935;-88
2023/04/21 02:45:46;;;;;;;;;;;;;;;;;;5064876;28;42884;-89
2023/04/21 02:48:12;;;;;;;;;;;;;;;;;;5063973;28;43217;-81
2023/04/21 02:50:39;;;;;;;;;;;;;;;;;;5064079;28;44115;-82
2023/04/21 02:53:04;;;;;;;;;;;19.30;50.30;;;;;;5064161;28;43000;-84
2023/04/21 02:55:30;;;;;;;;;;;;;;;;;;5063475;28;43401;-86
2023/04/21 02:57:56;;;;;;;;;;;;;;;;;;5063194;28;43086;-82
2023/04/21 03:00:22;;;;;;;;;;;;;;;;;;5063137;28;43907;-86
2023/04/21 03:02:48;;;;;;;;;;;;;;;;;;5065492;28;43012;-86
2023/04/21 03:05:14;;;;;;;;;;;;;;;;;;5064596;28;43904;-82
2023/04/21 03:07:39;;;;;;;;;;;19.20;50.50;;;;;;5064695;28;42970;-87
2023/04/21 03:10:05;;;;;;;;;;;19.10;50.40;;;;;;5064294;28;43755;-85
2023/04/21 03:12:31;;;;;;;;;;;19.10;50.50;;;;;;5064524;28;43005;-88
2023/04/21 03:14:57;;;;;;;;;;;19.10;50.40;;;;;;5061833;28;43172;-85
2023/04/21 03:17:23;;;;;;;;;;;;;;;;;;5064652;28;43032;-87
2023/04/21 03:19:49;;;;;;;;;;;19.20;50.40;;;;;;5065038;28;43666;-85
2023/04/21 03:22:14;;;;;;;;;;;19.30;50.40;;;;;;5063558;28;43252;-86
2023/04/21 03:24:40;;;;;;;;;;;;;;;;;;5064172;28;43041;-86
2023/04/21 03:27:06;;;;;;;;;;;;;;;;;;5061305;28;43233;-82
2023/04/21 03:29:32;;;;;;;;;;;;;;;;;;5064198;28;42898;-87
2023/04/21 03:31:57;;;;;;;;;;;19.20;50.50;;;;;;5064610;28;42879;-84
2023/04/21 03:34:23;;;;;;;;;;;19.20;50.50;;;;;;5062520;28;44043;-86
2023/04/21 03:36:49;;;;;;;;;;;;;;;;;;5063184;28;42847;-84
2023/04/21 03:39:14;;;;;;;;;;;19.20;50.40;;;;;;5063565;28;42939;-87
2023/04/21 03:41:40;;;;;;;;;;;;;;;;;;5063213;28;42983;-87
2023/04/21 03:44:06;;;;;;;;;;;;;;;;;;5064920;28;43664;-87
2023/04/21 03:46:32;;;;;;;;;;;;;;;;;;5064512;28;43000;-84
2023/04/21 03:48:58;;;;;;;;;;;;;;;;;;5058507;28;43484;-80
2023/04/21 03:51:24;;;;;;;;;;;;;;;;;;5064162;28;42947;-85
2023/04/21 03:53:50;;;;;;;;;;;;;;;;;;5063485;28;43893;-88
2023/04/21 03:56:16;;;;;;;;;;;;;;;;;;5064179;28;43023;-86
2023/04/21 03:58:41;;;;;;;;;;;19.20;50.50;;;;;;5060460;28;42960;-87
2023/04/21 04:01:07;;;;;;;;;;;19.10;50.40;;;;;;5058696;28;43178;-86
2023/04/21 04:03:33;;;;;;;;;;;19.10;50.40;;;;;;5062201;28;42914;-83
2023/04/21 04:05:58;;;;;;;;;;;19.30;50.40;;;;;;5063788;28;42811;-88
2023/04/21 04:08:24;;;;;;;;;;;;;;;;;;5062971;28;44321;-84
2023/04/21 04:10:50;;;;;;;;;;;;;;;;;;5060262;28;43649;-87
2023/04/21 04:13:16;;;;;;;;;;;;;;;;;;5061756;28;43532;-85
2023/04/21 04:15:42;;;;;;;;;;;;;;;;;;5059904;28;43112;-88
2023/04/21 04:18:08;;;;;;;;;;;;;;;;;;5062783;28;42912;-88
2023/04/21 04:20:34;;;;;;;;;;;;;;;;;;5059109;28;43135;-89
2023/04/21 04:23:00;;;;;;;;;;;;;;;;;;5059274;28;43737;-87
2023/04/21 04:25:26;;;;;;;;;;;;;;;;;;5060826;28;42896;-84
2023/04/21 04:27:52;;;;;;;;;;;19.10;50.30;;;;;;5065924;28;43947;-90
2023/04/21 04:30:18;;;;;;;;;;;;;;;;;;5066619;28;43168;-85
2023/04/21 04:32:44;;;;;;;;;;;;;;;;;;5070345;28;43698;-86
2023/04/21 04:35:11;;;;;;;;;;;;;;;;;;5066919;27;42915;-85
2023/04/21 04:37:37;;;;;;;;;;;19.20;50.60;;;;;;5065641;28;43821;-89
2023/04/21 04:40:14;;;;;;;;;;;;;;;;;;5066688;28;43063;-84
2023/04/21 04:42:40;;;;;;;;;;;;;;;;;;5064902;28;44773;-87
2023/04/21 04:45:07;;;;;;;;;;;;;;;;;;5064954;28;44240;-88
2023/04/21 04:47:36;;;;;;;;;;;19.10;50.50;;;;;;5066988;28;42829;-90
2023/04/21 04:50:02;;;;;;;;;;;;;;;;;;5066760;28;42894;-87
2023/04/21 04:52:28;;;;;;;;;;;;;;;;;;5062483;28;43541;-88
2023/04/21 04:54:54;;;;;;;;;;;;;;;;;;5062591;28;42993;-89
2023/04/21 04:57:19;;;;;;;;;;;;;;;;;;5065511;28;42818;-87
2023/04/21 04:59:45;;;;;;;;;;;19.10;50.40;;;;;;5065250;28;42953;-90
2023/04/21 05:02:11;;;;;;;;;;;19.30;50.50;;;;;;5065526;28;43562;-89
2023/04/21 05:04:37;;;;;;;;;;;19.10;50.40;;;;;;5066124;28;43063;-89
2023/04/21 05:07:04;;;;;;;;;;;19.20;50.40;;;;;;5060729;28;43566;-85
2023/04/21 05:09:30;;;;;;;;;;;;;;;;;;5065799;28;42981;-84
2023/04/21 05:11:56;;;;;;;;;;;;;;;;;;5066775;28;42784;-81
2023/04/21 05:14:22;;;;;;;;;;;;;;;;;;5066362;28;43139;-87
2023/04/21 05:16:48;;;;;;;;;;;;;;;;;;5066523;28;42975;-85
2023/04/21 05:19:14;;;;;;;;;;;;;;;;;;5065935;28;43102;-87
2023/04/21 05:21:40;;;;;;;;;;;;;;;;;;5079612;28;43875;-85
2023/04/21 05:24:06;;;;;;;;;;;;;;;;;;5086627;27;42959;-84
2023/04/21 05:26:32;;;;;;;;;;;;;;;;;;5065071;28;42923;-85
2023/04/21 05:28:57;;;;;;;;;;;19.10;50.40;;;;;;5053003;28;42979;-86
2023/04/21 05:31:23;;;;;;;;;;;19.30;50.50;;;;;;5055239;28;43496;-87
2023/04/21 05:33:49;;;;;;;;;;;19.10;50.40;;;;;;5066753;28;43076;-86
2023/04/21 05:36:15;;;;;;;;;;;;;;;;;;5065110;28;43056;-84
2023/04/21 05:38:40;;;;;;;;;;;19.10;50.30;;;;;;5085200;28;42948;-80
2023/04/21 05:41:07;;;;;;;;;;;;;;;;;;5061686;28;43725;-86
2023/04/21 05:43:33;;;;;;;;;;;19.20;50.40;;;;;;5053554;28;42960;-88
2023/04/21 05:45:59;;;;;;;;;;;19.20;50.40;;;;;;5066050;28;43707;-88
2023/04/21 05:48:24;;;;;;;;;;;19.20;50.40;;;;;;5063699;28;42914;-87
2023/04/21 05:50:50;;;;;;;;;;;;;;;;;;5064923;28;42893;-86
2023/04/21 05:53:16;;;;;;;;;;;;;;;;;;5066911;28;42856;-85
2023/04/21 05:55:42;;;;;;;;;;;;;;;;;;5065941;28;43246;-85
2023/04/21 05:58:08;;;;;;;;;;;;;;;;;;5067311;28;42890;-81
2023/04/21 06:00:34;;;;;;;;;;;;;;;;;;5065438;28;43379;-87
2023/04/21 06:03:00;;;;;;;;;;;;;;;;;;5066294;28;42959;-85
2023/04/21 06:05:26;;;;;;;;;;;;;;;;;;5065481;28;42912;-85
2023/04/21 06:07:52;;;;;;;;;;;;;;;;;;5065944;28;42896;-85
2023/04/21 06:10:18;;;;;;;;;;;;;;;;;;5065917;28;43419;-81
2023/04/21 06:12:44;;;;;;;;;;;;;;;;;;5065703;28;42823;-80
2023/04/21 06:15:10;;;;;;;;;;;;;;;;;;5064421;28;44879;-80
2023/04/21 06:17:36;;;;;;;;;;;;;;;;;;5065944;28;42988;-79
2023/04/21 06:20:02;;;;;;;;;;;;;;;;;;5064659;28;42927;-78
2023/04/21 06:22:28;;;;;;;;;;;;;;;;;;5069392;28;42976;-81
2023/04/21 06:24:54;;;;;;;;;;;;;;;;;;5064533;28;43088;-82
2023/04/21 06:27:20;;;;;;;;;;;;;;;;;;5065674;28;42920;-77
2023/04/21 06:29:46;;;;;;;;;;;;;;;;;;5065367;28;43567;-80
2023/04/21 06:32:12;;;;;;;;;;;;;;;;;;5065297;28;42815;-80
2023/04/21 06:34:38;;;;;;;;;;;;;;;;;;5063871;28;43045;-79
2023/04/21 06:37:04;;;;;;;;;;;;;;;;;;5064402;28;42940;-78
2023/04/21 06:39:29;;;;;;;;;;;19.20;50.50;;;;;;5064623;28;43087;-79
2023/04/21 06:41:56;;;;;;;;;;;19.20;50.50;;;;;;5064402;28;43070;-95
2023/04/21 06:44:22;;;;;;;;;;;19.10;50.30;;;;;;5065205;28;43253;-94
2023/04/21 06:46:48;;;;;;;;;;;;;;;;;;5065118;28;42371;-89
2023/04/21 06:49:14;;;;;;;;;;;;;;;;;;5065455;28;42909;-92
2023/04/21 06:51:40;;;;;;;;;;;;;;;;;;5067592;28;42989;-91
2023/04/21 06:54:05;;;;;;;;;;;19.10;50.60;;;;;;5077868;28;42872;-96
2023/04/21 06:56:31;;;;;;;;;;;19.20;50.80;;;;;;5083742;28;42835;-96
2023/04/21 06:58:57;;;;;;;;;;;19.10;50.70;;;;;;5086171;28;42511;-91
2023/04/21 07:01:23;;;;;;;;;;;;;;;;;;5074768;28;42783;-90
2023/04/21 07:03:49;;;;;;;;;;;19.10;50.60;;;;;;5068865;28;43494;-88
2023/04/21 07:06:14;;;;;;;;;;;19.20;50.60;;;;;;5075648;28;43099;-89
2023/04/21 07:08:40;;;;;;;;;;;;;;;;;;5085285;27;43481;-89
2023/04/21 07:11:06;;;;;;;;;;;;;;;;;;5065241;27;43055;-85
2023/04/21 07:13:32;;;;;;;;;;;;;;;;;;5063530;28;43806;-89
2023/04/21 07:15:58;;;;;;;;;;;;;;;;;;5064237;28;42913;-92
2023/04/21 07:18:24;;;;;;;;;;;;;;;;;;5064107;28;43231;-84
2023/04/21 07:20:50;;;;;;;;;;;;;;;;;;5063684;28;43272;-85
2023/04/21 07:23:16;;;;;;;;;;;;;;;;;;5064421;28;42979;-85
2023/04/21 07:25:42;;;;;;;;;;;;;;;;;;5065759;28;42805;-84
2023/04/21 07:28:07;;;;;;;;;;;19.10;50.70;;;;;;5064530;28;43649;-84
2023/04/21 07:30:33;;;;;;;;;;;;;;;;;;5066022;28;42928;-84
2023/04/21 07:32:59;;;;;;;;;;;19.20;50.70;;;;;;5063750;28;45689;-84
2023/04/21 07:35:25;;;;;;;;;;;19.20;50.70;;;;;;5063730;28;42949;-84
2023/04/21 07:37:51;;;;;;;;;;;19.30;50.80;;;;;;5064576;28;43055;-84
2023/04/21 07:40:16;;;;;;;;;;;19.20;50.60;;;;;;5065249;28;42822;-84
2023/04/21 07:42:42;;;;;;;;;;;;;;;;;;5065132;28;43253;-78
2023/04/21 07:45:08;;;;;;;;;;;;;;;;;;5065054;28;43131;-77
2023/04/21 07:47:34;;;;;;;;;;;;;;;;;;5065275;28;43483;-76
2023/04/21 07:50:00;;;;;;;;;;;;;;;;;;5065326;28;42826;-77
2023/04/21 07:52:26;;;;;;;;;;;;;;;;;;5065205;28;42879;-77
2023/04/21 07:54:51;;;;;;;;;;;19.30;50.90;;;;;;5064985;28;42822;-76
2023/04/21 07:57:17;;;;;;;;;;;19.30;50.90;;;;;;5065053;28;43770;-76
2023/04/21 07:59:43;;;;;;;;;;;;;;;;;;5064618;28;43059;-78
2023/04/21 08:02:09;;;;;;;;;;;;;;;;;;5068429;28;42909;-78
2023/04/21 08:04:34;;;;;;;;;;;19.30;51.00;;;;;;5068644;28;42933;-76
2023/04/21 08:07:00;;;;;;;;;;;;;;;;;;5067920;28;43451;-78
2023/04/21 08:09:26;;;;;;;;;;;;;;;;;;5068713;28;42897;-81
2023/04/21 08:11:53;;;;;;;;;;;;;;;;;;5068545;28;42733;-78
2023/04/21 08:14:19;;;;;;;;;;;19.20;51.00;;;;;;5068054;28;42931;-76
2023/04/21 08:16:44;;;;;;;;;;;19.10;50.90;;;;;;5067898;28;42810;-76
2023/04/21 08:19:10;;;;;;;;;;;;;;;;;;5068366;28;42936;-77
2023/04/21 08:21:36;;;;;;;;;;;;;;;;;;5068635;28;43510;-77
2023/04/21 08:24:02;;;;;;;;;;;;;;;;;;5067991;28;42983;-77
2023/04/21 08:26:29;;;;;;;;;;;;;;;;;;5068139;28;43787;-76
2023/04/21 08:28:55;;;;;;;;;;;19.20;51.00;;;;;;5068353;28;42791;-76
2023/04/21 08:31:20;;;;;;;;;;;19.10;50.90;;;;;;5068102;28;43003;-77
2023/04/21 08:33:46;;;;;;;;;;;;;;;;;;5068081;28;42730;-85
2023/04/21 08:36:12;;;;;;;;;;;;;;;;;;5067990;28;43815;-78
2023/04/21 08:38:38;;;;;;;;;;;;;;;;;;5067844;28;42851;-76
2023/04/21 08:41:04;;;;;;;;;;;;;;;;;;5067146;28;43010;-76
2023/04/21 08:43:30;;;;;;;;;;;;;;;;;;5068016;28;43273;-76
2023/04/21 08:45:56;;;;;;;;;;;;;;;;;;5067823;28;42942;-76
2023/04/21 08:48:22;;;;;;;;;;;19.20;51.20;;;;;;5068515;28;43399;-76
2023/04/21 08:50:48;;;;;;;;;;;;;;;;;;5067503;28;43467;-82
2023/04/21 08:53:14;;;;;;;;;;;;;;;;;;5068154;28;42891;-83
2023/04/21 08:55:40;;;;;;;;;;;;;;;;;;5067944;28;43561;-85
2023/04/21 08:58:08;;;;;;;;;;;;;;;;;;5067915;28;42935;-77
2023/04/21 09:00:34;;;;;;;;;;;19.30;51.00;;;;;;5067424;28;43494;-77
2023/04/21 09:03:00;;;;;;;;;;;;;;;;;;5067357;28;42997;-84
2023/04/21 09:05:26;;;;;;;;;;;;;;;;;;5067149;28;43984;-82
2023/04/21 09:07:52;;;;;;;;;;;;;;;;;;5067113;28;43005;-84
2023/04/21 09:10:23;;;;;;;;;;;19.20;50.80;;;;;;5067735;28;42783;-77
2023/04/21 09:12:50;;;;;;;;;;;19.30;51.00;;;;;;5067067;28;42853;-84
2023/04/21 09:15:16;;;;;;;;;;;;;;;;;;5067469;28;43606;-76
2023/04/21 09:17:42;;;;;;;;;;;;;;;;;;5067567;28;42889;-76
2023/04/21 09:20:12;;;;;;;;;;;19.10;50.80;;;;;;5067793;28;43464;-77
2023/04/21 09:22:38;;;;;;;;;;;;;;;;;;5067536;28;42833;-85
2023/04/21 09:25:04;;;;;;;;;;;;;;;;;;5067424;28;43790;-79
2023/04/21 09:27:30;;;;;;;;;;;;;;;;;;5067445;28;43023;-83
2023/04/21 09:30:01;;;;;;;;;;;19.30;50.80;;;;;;5067151;28;43044;-84
2023/04/21 09:32:26;;;;;;;;;;;19.40;50.80;;;;;;5067037;28;42743;-84
2023/04/21 09:34:52;;;;;;;;;;;;;;;;;;5066686;28;42921;-83
2023/04/21 09:37:23;;;;;;;;;;;;;;;;;;5066716;28;43022;-78
2023/04/21 09:39:48;;;;;;;;;;;19.30;50.60;;;;;;5066837;28;43620;-86
2023/04/21 09:42:14;;;;;;;;;;;;;;;;;;5067161;28;42787;-81
2023/04/21 09:44:40;;;;;;;;;;;;;;;;;;5067129;28;43575;-85
2023/04/21 09:47:06;;;;;;;;;;;;;;;;;;5067407;28;42725;-84
2023/04/21 09:49:32;;;;;;;;;;;;;;;;;;5066925;28;43073;-77
2023/04/21 09:51:58;;;;;;;;;;;19.20;50.80;;;;;;5066775;28;42968;-84
2023/04/21 09:54:24;;;;;;;;;;;;;;;;;;5066899;28;43697;-77
2023/04/21 09:56:50;;;;;;;;;;;;;;;;;;5067140;28;42944;-85
2023/04/21 09:59:16;;;;;;;;;;;;;;;;;;5066471;28;42960;-79
2023/04/21 10:01:42;;;;;;;;;;;19.20;50.50;;;;;;5065056;28;42957;-77
2023/04/21 10:04:08;;;;;;;;;;;;;;;;;;5066805;28;42903;-77
2023/04/21 10:06:35;;;;;;;;;;;;;;;;;;5066935;28;42952;-77
2023/04/21 10:09:01;;;;;;;;;;;19.30;50.60;;;;;;5066713;28;42864;-86
2023/04/21 10:11:27;;;;;;;;;;;19.50;50.70;;;;;;5066307;28;42815;-85
2023/04/21 10:13:52;;;;;;;;;;;19.30;50.50;;;;;;5066067;28;42731;-86
2023/04/21 10:16:20;;;;;;;;;;;;;;;;;;5066385;28;42937;-83
2023/04/21 10:18:46;;;;;;;;;;;;;;;;;;5066562;28;43383;-85
2023/04/21 10:21:12;;;;;;;;;;;;;;;;;;5066882;28;42879;-84
2023/04/21 10:23:38;;;;;;;;;;;19.30;50.40;;;;;;5065631;28;42849;-86
2023/04/21 10:26:05;;;;;;;;;;;;;;;;;;5066610;28;42745;-85
2023/04/21 10:28:41;;;;;;;;;;;19.30;50.30;;;;;;5066472;28;43748;-85
2023/04/21 10:31:42;;;;;;;;;;;19.30;50.30;;;;;;5066391;28;42859;-85
2023/04/21 10:34:07;;;;;;;;;;;19.40;50.30;;;;;;4986861;28;43276;-85
2023/04/21 10:36:33;;;;;;;;;;;19.40;50.30;;;;;;5003793;28;43099;-86
2023/04/21 10:39:03;;;;;;;;;;;19.30;50.30;;;;;;5003963;28;43029;-86
2023/04/21 10:41:28;;;;;;;;;;;;;;;;;;5002956;28;42975;-82
2023/04/21 10:44:12;;;;;;;;;;;19.40;50.20;;;;;;5003793;28;43825;-86
2023/04/21 10:46:39;;;;;;;;;;;;;;;;;;5003509;28;43016;-84
2023/04/21 10:49:07;;;;;;;;;;;19.40;50.20;;;;;;5003083;28;42964;-85
2023/04/21 10:51:32;;;;;;;;;;;19.40;50.40;;;;;;5003100;28;43026;-85
2023/04/21 10:53:58;;;;;;;;;;;;;;;;;;5003032;28;43008;-86
2023/04/21 10:56:24;;;;;;;;;;;;;;;;;;5002982;28;43024;-83
2023/04/21 10:58:50;;;;;;;;;;;;;;;;;;5003412;28;42858;-84
2023/04/21 11:01:16;;;;;;;;;;;;;;;;;;5003542;28;43099;-86
2023/04/21 11:03:42;;;;;;;;;;;;;;;;;;5003269;28;43923;-86
2023/04/21 11:06:08;;;;;;;;;;;;;;;;;;5003202;28;42988;-84
2023/04/21 11:08:34;;;;;;;;;;;;;;;;;;5039501;28;43035;-85
2023/04/21 11:11:00;;;;;;;;;;;19.50;50.20;;;;;;5064393;28;43012;-86
2023/04/21 11:13:26;;;;;;;;;;;;;;;;;;5065470;28;42964;-86
2023/04/21 11:15:52;;;;;;;;;;;;;;;;;;5065151;28;42806;-85
2023/04/21 11:18:18;;;;;;;;;;;;;;;;;;5065607;28;43643;-84
2023/04/21 11:20:45;;;;;;;;;;;19.30;50.00;;;;;;5064869;28;58542;-86
2023/04/21 11:23:16;;;;;;;;;;;19.60;50.10;;;;;;5064529;28;42968;-85
2023/04/21 11:25:44;;;;;;;;;;;19.40;50.00;;;;;;5064717;28;43028;-85
2023/04/21 11:28:10;;;;;;;;;;;;;;;;;;5064338;28;43558;-83
2023/04/21 11:30:36;;;;;;;;;;;;;;;;;;5065570;28;43187;-85
2023/04/21 11:33:02;;;;;;;;;;;;;;;;;;5065188;28;43480;-85
2023/04/21 11:35:28;;;;;;;;;;;;;;;;;;5065051;28;42955;-82
2023/04/21 11:37:54;;;;;;;;;;;;;;;;;;5065011;28;43565;-82
2023/04/21 11:40:19;;;;;;;;;;;19.50;50.00;;;;;;5065370;28;42932;-85
2023/04/21 11:42:45;;;;;;;;;;;19.50;50.00;;;;;;5064890;28;43517;-85
2023/04/21 11:45:18;;;;;;;;;;;19.50;50.00;;;;;;5060702;28;43029;-85
2023/04/21 11:47:44;;;;;;;;;;;;;;;;;;5063167;28;43005;-86
2023/04/21 11:50:10;;;;;;;;;;;19.50;50.00;;;;;;5064142;28;42979;-76
2023/04/21 11:52:40;;;;;;;;;;;;;;;;;;5060232;28;43634;-81
2023/04/21 11:55:06;;;;;;;;;;;;;;;;;;5060361;28;42759;-81
2023/04/21 11:57:32;;;;;;;;;;;19.30;49.80;;;;;;5064229;28;43000;-82
2023/04/21 11:59:58;;;;;;;;;;;19.50;49.80;;;;;;5062731;28;43077;-84
2023/04/21 12:02:24;;;;;;;;;;;;;;;;;;5062717;28;43075;-86
2023/04/21 12:04:50;;;;;;;;;;;;;;;;;;5060819;28;42960;-84
2023/04/21 12:07:16;;;;;;;;;;;;;;;;;;5048447;28;43760;-78
2023/04/21 12:09:42;;;;;;;;;;;;;;;;;;5062692;28;42875;-75
2023/04/21 12:12:08;;;;;;;;;;;19.40;49.80;;;;;;5063441;28;43745;-74
2023/04/21 12:14:34;;;;;;;;;;;;;;;;;;5063512;28;42980;-77
2023/04/21 12:17:00;;;;;;;;;;;;;;;;;;5064096;28;42968;-75
2023/04/21 12:19:26;;;;;;;;;;;;;;;;;;5063471;28;42858;-78
2023/04/21 12:21:52;;;;;;;;;;;;;;;;;;5063321;28;44105;-74
2023/04/21 12:24:18;;;;;;;;;;;;;;;;;;5064190;28;42932;-78
2023/04/21 12:26:43;;;;;;;;;;;;;;;;;;5063840;28;43523;-77
2023/04/21 12:29:09;;;;;;;;;;;19.40;49.70;;;;;;5062701;28;42969;-75
2023/04/21 12:31:34;;;;;;;;;;;19.50;49.70;;;;;;5062896;28;42966;-75
2023/04/21 12:34:00;;;;;;;;;;;19.50;49.60;;;;;;5063809;28;42988;-77
2023/04/21 12:36:26;;;;;;;;;;;;;;;;;;5059671;28;43250;-82
2023/04/21 12:38:52;;;;;;;;;;;;;;;;;;5060599;28;42937;-80
2023/04/21 12:41:18;;;;;;;;;;;;;;;;;;5061630;28;43890;-81
2023/04/21 12:43:44;;;;;;;;;;;;;;;;;;5061792;28;42853;-79
2023/04/21 12:46:10;;;;;;;;;;;;;;;;;;5061954;28;43459;-80
2023/04/21 12:48:36;;;;;;;;;;;;;;;;;;5065150;28;43148;-81
2023/04/21 12:51:02;;;;;;;;;;;;;;;;;;5065170;28;43040;-81
2023/04/21 12:53:28;;;;;;;;;;;;;;;;;;5066700;28;43097;-81
2023/04/21 12:55:53;;;;;;;;;;;19.50;49.50;;;;;;5067125;28;44187;-77
2023/04/21 12:58:19;;;;;;;;;;;19.60;49.60;;;;;;5067328;28;43047;-78
2023/04/21 13:00:44;;;;;;;;;;;;;;;;;;5065175;28;44418;-81
2023/04/21 13:03:10;;;;;;;;;;;19.50;49.40;;;;;;5065756;28;42945;-76
2023/04/21 13:05:36;;;;;;;;;;;;;;;;;;5065649;28;42952;-78
2023/04/21 13:08:02;;;;;;;;;;;;;;;;;;5066299;28;42946;-76
2023/04/21 13:10:28;;;;;;;;;;;;;;;;;;5066587;28;42946;-81
2023/04/21 13:12:54;;;;;;;;;;;;;;;;;;5067091;28;43083;-76
2023/04/21 13:15:19;;;;;;;;;;;19.40;49.30;;;;;;5066865;28;42944;-82
2023/04/21 13:17:45;;;;;;;;;;;;;;;;;;5066354;28;43130;-78
2023/04/21 13:20:11;;;;;;;;;;;19.50;49.20;;;;;;5066086;28;42937;-76
2023/04/21 13:22:36;;;;;;;;;;;19.60;49.20;;;;;;5064028;28;42893;-77
2023/04/21 13:25:03;;;;;;;;;;;;;;;;;;5065606;28;43003;-82
2023/04/21 13:27:29;;;;;;;;;;;;;;;;;;5066699;28;42914;-81
2023/04/21 13:29:56;;;;;;;;;;;19.40;49.10;;;;;;5060423;28;44924;-79
2023/04/21 13:32:21;;;;;;;;;;;19.50;49.20;;;;;;5066449;28;43151;-81
2023/04/21 13:34:47;;;;;;;;;;;19.50;49.10;;;;;;5066295;28;42983;-80
2023/04/21 13:37:14;;;;;;;;;;;19.50;48.90;;;;;;5064658;28;43202;-79
2023/04/21 13:39:41;;;;;;;;;;;19.60;48.90;;;;;;5064381;28;42962;-76
2023/04/21 13:42:06;;;;;;;;;;;19.50;48.80;;;;;;5065134;28;42847;-76
2023/04/21 13:44:32;;;;;;;;;;;;;;;;;;5065957;28;43584;-80
2023/04/21 13:46:58;;;;;;;;;;;;;;;;;;5066683;28;43151;-81
2023/04/21 13:49:24;;;;;;;;;;;;;;;;;;5066059;28;43588;-76
2023/04/21 13:51:50;;;;;;;;;;;;;;;;;;5065956;28;43013;-77
2023/04/21 13:54:16;;;;;;;;;;;;;;;;;;5065249;28;43639;-76
2023/04/21 13:56:41;;;;;;;;;;;19.50;48.90;;;;;;5065071;28;43631;-80
2023/04/21 13:59:09;;;;;;;;;;;19.60;48.90;;;;;;5063974;28;43407;-76
2023/04/21 14:01:35;;;;;;;;;;;;;;;;;;5063339;28;43108;-76
2023/04/21 14:04:01;;;;;;;;;;;19.60;48.90;;;;;;5065134;28;43141;-78
2023/04/21 14:06:26;;;;;;;;;;;19.50;48.60;;;;;;5064808;28;43061;-76
2023/04/21 14:08:52;;;;;;;;;;;;;;;;;;5063025;28;44216;-80
2023/04/21 14:11:18;;;;;;;;;;;;;;;;;;5065013;28;43065;-80
2023/04/21 14:13:44;;;;;;;;;;;;;;;;;;5064920;28;42957;-75
2023/04/21 14:16:10;;;;;;;;;;;;;;;;;;5064375;28;42941;-77
2023/04/21 14:18:39;;;;;;;;;;;;;;;;;;5064700;28;43875;-78
2023/04/21 14:21:04;;;;;;;;;;;19.60;48.60;;;;;;5066275;28;43000;-76
2023/04/21 14:23:30;;;;;;;;;;;;;;;;;;5065649;28;43442;-78
2023/04/21 14:25:56;;;;;;;;;;;;;;;;;;5065000;28;43059;-77
2023/04/21 14:28:22;;;;;;;;;;;;;;;;;;5065308;28;43034;-77
2023/04/21 14:30:48;;;;;;;;;;;;;;;;;;5065090;28;43079;-77
2023/04/21 14:33:14;;;;;;;;;;;;;;;;;;5065124;28;43035;-77
2023/04/21 14:35:39;;;;;;;;;;;19.60;48.70;;;;;;5064067;28;42907;-81
2023/04/21 14:38:05;;;;;;;;;;;19.60;48.60;;;;;;5064105;28;44360;-78
2023/04/21 14:40:30;;;;;;;;;;;19.50;48.60;;;;;;5065317;28;42885;-78
2023/04/21 14:42:56;;;;;;;;;;;;;;;;;;5064456;28;43645;-82
2023/04/21 14:45:22;;;;;;;;;;;;;;;;;;5064508;28;43609;-82
2023/04/21 14:47:48;;;;;;;;;;;;;;;;;;5065587;28;42900;-82
2023/04/21 14:50:14;;;;;;;;;;;;;;;;;;5065424;28;42838;-82
2023/04/21 14:52:40;;;;;;;;;;;;;;;;;;5063980;28;45143;-82
2023/04/21 14:55:06;;;;;;;;;;;;;;;;;;5066077;28;43025;-82
2023/04/21 14:57:32;;;;;;;;;;;;;;;;;;5065951;28;42883;-82
2023/04/21 14:59:58;;;;;;;;;;;;;;;;;;5066183;28;42835;-82
2023/04/21 15:02:24;;;;;;;;;;;;;;;;;;5065855;28;43266;-81
2023/04/21 15:04:50;;;;;;;;;;;;;;;;;;5064307;28;42905;-82
2023/04/21 15:07:15;;;;;;;;;;;;;;;;;;5066026;28;43053;-81
2023/04/21 15:09:46;;;;;;;;;;;19.50;48.40;;;;;;5065262;28;42816;-79
2023/04/21 15:12:12;;;;;;;;;;;;;;;;;;5065631;28;42918;-82
2023/04/21 15:14:38;;;;;;;;;;;;;;;;;;5065042;28;42969;-82
2023/04/21 15:17:04;;;;;;;;;;;;;;;;;;5065586;28;43835;-81
2023/04/21 15:19:30;;;;;;;;;;;19.60;48.30;;;;;;5065564;28;42953;-81
2023/04/21 15:21:55;;;;;;;;;;;19.50;48.30;;;;;;5064657;28;42839;-82
2023/04/21 15:24:21;;;;;;;;;;;19.40;48.30;;;;;;5065421;28;42876;-78
2023/04/21 15:26:46;;;;;;;;;;;19.40;48.20;;;;;;5065370;28;43759;-81
2023/04/21 15:29:12;;;;;;;;;;;;;;;;;;5065221;28;42960;-82
2023/04/21 15:31:38;;;;;;;;;;;;;;;;;;5065250;28;43714;-82
2023/04/21 15:34:04;;;;;;;;;;;;;;;;;;5064335;28;43251;-82
2023/04/21 15:36:30;;;;;;;;;;;;;;;;;;5065313;28;44350;-80
2023/04/21 15:38:56;;;;;;;;;;;19.40;48.00;;;;;;5065476;28;42823;-81
2023/04/21 15:41:24;;;;;;;;;;;;;;;;;;5064646;28;43416;-82